Terminal Aerodrome Forecast
Issued by NWS

Home | Current Version | Previous Version | Text Only | Print | Product List | Glossary On
Versions: 1 2 3 4 5 6 7 8 9 10 11 12 13 14 15 16 17
000
FTUS42 KTAE 021743
TAFECP
TAF
KECP 021743Z 0218/0318 34011KT P6SM SCT027 BKN040
     FM021900 30010KT P6SM BKN045
     FM030100 29002KT P6SM FEW040 BKN250
     FM031400 29005KT P6SM SCT025=

USA.gov is the U.S. government's official web portal to all federal, state and local government web resources and services.